sensor_id;sensor_type;location;lat;lon;timestamp;pressure;altitude;pressure_sealevel;temperature;humidity
17855;BME280;9053;53.358;6.382;2023-10-09T00:01:44;101851.78;;;16.63;100.00
17855;BME280;9053;53.358;6.382;2023-10-09T00:04:18;101855.38;;;16.63;100.00
17855;BME280;9053;53.358;6.382;2023-10-09T00:06:49;101851.84;;;16.64;100.00
17855;BME280;9053;53.358;6.382;2023-10-09T00:09:21;101848.28;;;16.64;100.00
17855;BME280;9053;53.358;6.382;2023-10-09T00:12:09;101832.38;;;16.65;100.00
17855;BME280;9053;53.358;6.382;2023-10-09T00:14:39;101824.41;;;16.65;100.00
17855;BME280;9053;53.358;6.382;2023-10-09T00:17:15;101825.34;;;16.66;100.00
17855;BME280;9053;53.358;6.382;2023-10-09T00:19:54;101820.91;;;16.66;100.00
17855;BME280;9053;53.358;6.382;2023-10-09T00:22:27;101813.84;;;16.67;100.00
17855;BME280;9053;53.358;6.382;2023-10-09T00:25:00;101824.47;;;16.67;100.00
17855;BME280;9053;53.358;6.382;2023-10-09T00:27:52;101823.59;;;16.68;100.00
17855;BME280;9053;53.358;6.382;2023-10-09T00:30:22;101799.69;;;16.68;100.00
17855;BME280;9053;53.358;6.382;2023-10-09T00:33:03;101799.69;;;16.68;100.00
17855;BME280;9053;53.358;6.382;2023-10-09T00:35:40;101792.66;;;16.70;100.00
17855;BME280;9053;53.358;6.382;2023-10-09T00:38:24;101790.91;;;16.71;100.00
17855;BME280;9053;53.358;6.382;2023-10-09T00:41:01;101778.47;;;16.70;100.00
17855;BME280;9053;53.358;6.382;2023-10-09T00:43:46;101776.75;;;16.72;100.00
17855;BME280;9053;53.358;6.382;2023-10-09T00:46:21;101782.03;;;16.70;100.00
17855;BME280;9053;53.358;6.382;2023-10-09T00:48:56;101782.03;;;16.70;100.00
17855;BME280;9053;53.358;6.382;2023-10-09T00:51:31;101783.78;;;16.70;100.00
17855;BME280;9053;53.358;6.382;2023-10-09T00:54:07;101777.53;;;16.67;100.00
17855;BME280;9053;53.358;6.382;2023-10-09T00:56:42;101778.44;;;16.68;100.00
17855;BME280;9053;53.358;6.382;2023-10-09T00:59:28;101777.53;;;16.67;100.00
17855;BME280;9053;53.358;6.382;2023-10-09T01:02:01;101775.78;;;16.68;100.00
17855;BME280;9053;53.358;6.382;2023-10-09T01:04:34;101770.47;;;16.68;100.00
17855;BME280;9053;53.358;6.382;2023-10-09T01:07:15;101771.34;;;16.67;100.00
17855;BME280;9053;53.358;6.382;2023-10-09T01:09:52;101761.59;;;16.66;100.00
17855;BME280;9053;53.358;6.382;2023-10-09T01:12:37;101760.72;;;16.67;100.00
17855;BME280;9053;53.358;6.382;2023-10-09T01:15:13;101750.09;;;16.67;100.00
17855;BME280;9053;53.358;6.382;2023-10-09T01:18:03;101749.22;;;16.68;100.00
17855;BME280;9053;53.358;6.382;2023-10-09T01:20:35;101735.94;;;16.68;100.00
17855;BME280;9053;53.358;6.382;2023-10-09T01:23:15;101730.63;;;16.68;100.00
17855;BME280;9053;53.358;6.382;2023-10-09T01:25:46;101730.63;;;16.68;100.00
17855;BME280;9053;53.358;6.382;2023-10-09T01:28:16;101714.66;;;16.66;100.00
17855;BME280;9053;53.358;6.382;2023-10-09T01:30:47;101716.44;;;16.66;100.00
17855;BME280;9053;53.358;6.382;2023-10-09T01:33:22;101718.22;;;16.67;100.00
17855;BME280;9053;53.358;6.382;2023-10-09T01:35:54;101711.97;;;16.65;100.00
17855;BME280;9053;53.358;6.382;2023-10-09T01:38:28;101709.31;;;16.65;100.00
17855;BME280;9053;53.358;6.382;2023-10-09T01:41:11;101706.69;;;16.66;100.00
17855;BME280;9053;53.358;6.382;2023-10-09T01:43:46;101700.50;;;16.66;100.00
17855;BME280;9053;53.358;6.382;2023-10-09T01:46:19;101699.63;;;16.67;100.00
17855;BME280;9053;53.358;6.382;2023-10-09T01:48:50;101684.56;;;16.66;100.00
17855;BME280;9053;53.358;6.382;2023-10-09T01:51:20;101681.88;;;16.64;100.00
17855;BME280;9053;53.358;6.382;2023-10-09T01:53:59;101691.59;;;16.64;100.00
17855;BME280;9053;53.358;6.382;2023-10-09T01:56:31;101687.16;;;16.64;100.00
17855;BME280;9053;53.358;6.382;2023-10-09T01:59:04;101687.16;;;16.64;100.00
17855;BME280;9053;53.358;6.382;2023-10-09T02:01:44;101681.88;;;16.64;100.00
17855;BME280;9053;53.358;6.382;2023-10-09T02:04:14;101674.78;;;16.63;100.00
17855;BME280;9053;53.358;6.382;2023-10-09T02:06:50;101678.25;;;16.62;100.00
17855;BME280;9053;53.358;6.382;2023-10-09T02:09:29;101673.84;;;16.63;100.00
17855;BME280;9053;53.358;6.382;2023-10-09T02:11:59;101672.03;;;16.60;100.00
17855;BME280;9053;53.358;6.382;2023-10-09T02:14:33;101661.38;;;16.59;100.00
17855;BME280;9053;53.358;6.382;2023-10-09T02:17:09;101666.75;;;16.62;100.00
17855;BME280;9053;53.358;6.382;2023-10-09T02:19:44;101653.47;;;16.62;100.00
17855;BME280;9053;53.358;6.382;2023-10-09T02:25:04;101651.72;;;16.62;100.00
17855;BME280;9053;53.358;6.382;2023-10-09T02:27:38;101645.50;;;16.62;100.00
17855;BME280;9053;53.358;6.382;2023-10-09T02:30:23;101641.97;;;16.61;100.00
17855;BME280;9053;53.358;6.382;2023-10-09T02:33:01;101632.19;;;16.60;100.00
17855;BME280;9053;53.358;6.382;2023-10-09T02:35:36;101621.53;;;16.59;100.00
17855;BME280;9053;53.358;6.382;2023-10-09T02:38:13;101618.84;;;16.57;100.00
17855;BME280;9053;53.358;6.382;2023-10-09T02:40:49;101613.53;;;16.56;100.00
17855;BME280;9053;53.358;6.382;2023-10-09T02:43:47;101604.63;;;16.55;100.00
17855;BME280;9053;53.358;6.382;2023-10-09T02:46:18;101595.78;;;16.55;100.00
17855;BME280;9053;53.358;6.382;2023-10-09T02:48:57;101593.13;;;16.55;100.00
17855;BME280;9053;53.358;6.382;2023-10-09T02:51:30;101580.72;;;16.54;100.00
17855;BME280;9053;53.358;6.382;2023-10-09T02:54:09;101587.81;;;16.55;100.00
17855;BME280;9053;53.358;6.382;2023-10-09T02:56:57;101593.13;;;16.55;100.00
17855;BME280;9053;53.358;6.382;2023-10-09T02:59:37;101594.00;;;16.55;100.00
17855;BME280;9053;53.358;6.382;2023-10-09T03:02:12;101589.63;;;16.56;100.00
17855;BME280;9053;53.358;6.382;2023-10-09T03:04:42;101584.31;;;16.57;100.00
17855;BME280;9053;53.358;6.382;2023-10-09T03:07:15;101587.03;;;16.59;100.00
17855;BME280;9053;53.358;6.382;2023-10-09T03:09:50;101584.38;;;16.59;100.00
17855;BME280;9053;53.358;6.382;2023-10-09T03:12:23;101589.69;;;16.60;100.00
17855;BME280;9053;53.358;6.382;2023-10-09T03:14:54;101580.88;;;16.61;100.00
17855;BME280;9053;53.358;6.382;2023-10-09T03:17:29;101589.75;;;16.62;100.00
17855;BME280;9053;53.358;6.382;2023-10-09T03:20:10;101581.78;;;16.62;100.00
17855;BME280;9053;53.358;6.382;2023-10-09T03:22:41;101584.47;;;16.65;100.00
17855;BME280;9053;53.358;6.382;2023-10-09T03:25:12;101585.41;;;16.67;100.00
17855;BME280;9053;53.358;6.382;2023-10-09T03:27:46;101588.97;;;16.67;100.00
17855;BME280;9053;53.358;6.382;2023-10-09T03:30:17;101581.88;;;16.68;100.00
17855;BME280;9053;53.358;6.382;2023-10-09T03:32:54;101588.13;;;16.70;100.00
17855;BME280;9053;53.358;6.382;2023-10-09T03:35:26;101591.72;;;16.72;100.00
17855;BME280;9053;53.358;6.382;2023-10-09T03:38:00;101577.59;;;16.73;100.00
17855;BME280;9053;53.358;6.382;2023-10-09T03:40:41;101582.91;;;16.75;100.00
17855;BME280;9053;53.358;6.382;2023-10-09T03:43:15;101578.53;;;16.77;100.00
17855;BME280;9053;53.358;6.382;2023-10-09T03:45:49;101586.59;;;16.80;100.00
17855;BME280;9053;53.358;6.382;2023-10-09T03:48:27;101588.41;;;16.82;100.00
17855;BME280;9053;53.358;6.382;2023-10-09T03:50:59;101590.22;;;16.83;100.00
17855;BME280;9053;53.358;6.382;2023-10-09T03:53:39;101596.44;;;16.85;100.00
17855;BME280;9053;53.358;6.382;2023-10-09T03:56:10;101593.81;;;16.87;100.00
17855;BME280;9053;53.358;6.382;2023-10-09T03:58:47;101599.19;;;16.89;100.00
17855;BME280;9053;53.358;6.382;2023-10-09T04:01:19;101601.00;;;16.91;100.00
17855;BME280;9053;53.358;6.382;2023-10-09T04:03:54;101603.72;;;16.94;100.00
17855;BME280;9053;53.358;6.382;2023-10-09T04:06:30;101609.97;;;16.98;100.00
17855;BME280;9053;53.358;6.382;2023-10-09T04:09:04;101610.00;;;16.99;100.00
17855;BME280;9053;53.358;6.382;2023-10-09T04:11:54;101597.66;;;17.03;100.00
17855;BME280;9053;53.358;6.382;2023-10-09T04:14:49;101591.56;;;17.07;100.00
17855;BME280;9053;53.358;6.382;2023-10-09T04:17:22;101590.72;;;17.09;100.00
17855;BME280;9053;53.358;6.382;2023-10-09T04:20:10;101588.16;;;17.14;100.00
17855;BME280;9053;53.358;6.382;2023-10-09T04:23:08;101577.56;;;17.17;100.00
17855;BME280;9053;53.358;6.382;2023-10-09T04:25:44;101581.16;;;17.19;100.00
17855;BME280;9053;53.358;6.382;2023-10-09T04:28:18;101569.66;;;17.20;100.00
17855;BME280;9053;53.358;6.382;2023-10-09T04:30:54;101568.81;;;17.21;100.00
17855;BME280;9053;53.358;6.382;2023-10-09T04:33:31;101568.84;;;17.24;100.00
17855;BME280;9053;53.358;6.382;2023-10-09T04:36:20;101565.34;;;17.27;100.00
17855;BME280;9053;53.358;6.382;2023-10-09T04:38:58;101570.69;;;17.28;100.00
17855;BME280;9053;53.358;6.382;2023-10-09T04:41:41;101570.69;;;17.28;100.00
17855;BME280;9053;53.358;6.382;2023-10-09T04:44:26;101569.84;;;17.31;100.00
17855;BME280;9053;53.358;6.382;2023-10-09T04:47:05;101570.75;;;17.32;100.00
17855;BME280;9053;53.358;6.382;2023-10-09T04:49:46;101569.88;;;17.33;100.00
17855;BME280;9053;53.358;6.382;2023-10-09T04:52:33;101558.34;;;17.32;100.00
17855;BME280;9053;53.358;6.382;2023-10-09T04:55:19;101564.56;;;17.33;100.00
17855;BME280;9053;53.358;6.382;2023-10-09T04:57:51;101550.38;;;17.32;100.00
17855;BME280;9053;53.358;6.382;2023-10-09T05:00:36;101561.00;;;17.34;100.00
17855;BME280;9053;53.358;6.382;2023-10-09T05:03:23;101557.50;;;17.35;100.00
17855;BME280;9053;53.358;6.382;2023-10-09T05:06:11;101570.84;;;17.36;100.00
17855;BME280;9053;53.358;6.382;2023-10-09T05:09:10;101584.16;;;17.38;100.00
17855;BME280;9053;53.358;6.382;2023-10-09T05:11:42;101588.53;;;17.36;100.00
17855;BME280;9053;53.358;6.382;2023-10-09T05:14:36;101592.13;;;17.38;100.00
17855;BME280;9053;53.358;6.382;2023-10-09T05:17:12;101600.97;;;17.37;100.00
17855;BME280;9053;53.358;6.382;2023-10-09T05:19:53;101599.22;;;17.37;100.00
17855;BME280;9053;53.358;6.382;2023-10-09T05:22:45;101600.97;;;17.37;100.00
17855;BME280;9053;53.358;6.382;2023-10-09T05:25:25;101608.94;;;17.37;100.00
17855;BME280;9053;53.358;6.382;2023-10-09T05:28:13;101597.44;;;17.38;100.00
17855;BME280;9053;53.358;6.382;2023-10-09T05:31:15;101616.06;;;17.38;100.00
17855;BME280;9053;53.358;6.382;2023-10-09T05:33:57;101607.19;;;17.37;100.00
17855;BME280;9053;53.358;6.382;2023-10-09T05:36:31;101611.63;;;17.37;100.00
17855;BME280;9053;53.358;6.382;2023-10-09T05:39:03;101600.09;;;17.38;100.00
17855;BME280;9053;53.358;6.382;2023-10-09T05:41:46;101611.66;;;17.40;100.00
17855;BME280;9053;53.358;6.382;2023-10-09T05:44:27;101613.44;;;17.41;100.00
17855;BME280;9053;53.358;6.382;2023-10-09T05:47:09;101630.31;;;17.41;100.00
17855;BME280;9053;53.358;6.382;2023-10-09T05:49:53;101626.72;;;17.39;100.00
17855;BME280;9053;53.358;6.382;2023-10-09T05:52:56;101620.47;;;17.37;100.00
17855;BME280;9053;53.358;6.382;2023-10-09T05:55:36;101613.44;;;17.39;100.00
17855;BME280;9053;53.358;6.382;2023-10-09T05:58:34;101624.91;;;17.38;100.00
17855;BME280;9053;53.358;6.382;2023-10-09T06:01:30;101620.53;;;17.39;100.00
17855;BME280;9053;53.358;6.382;2023-10-09T06:04:14;101616.09;;;17.39;100.00
17855;BME280;9053;53.358;6.382;2023-10-09T06:06:47;101619.59;;;17.38;100.00
17855;BME280;9053;53.358;6.382;2023-10-09T06:09:29;101617.81;;;17.37;100.00
17855;BME280;9053;53.358;6.382;2023-10-09T06:12:19;101604.56;;;17.39;100.00
17855;BME280;9053;53.358;6.382;2023-10-09T06:15:20;101597.47;;;17.41;100.00
17855;BME280;9053;53.358;6.382;2023-10-09T06:18:04;101595.75;;;17.43;100.00
17855;BME280;9053;53.358;6.382;2023-10-09T06:20:52;101601.06;;;17.43;100.00
17855;BME280;9053;53.358;6.382;2023-10-09T06:23:38;101616.19;;;17.45;100.00
17855;BME280;9053;53.358;6.382;2023-10-09T06:26:22;101615.31;;;17.45;100.00
17855;BME280;9053;53.358;6.382;2023-10-09T06:29:00;101621.50;;;17.45;100.00
17855;BME280;9053;53.358;6.382;2023-10-09T06:31:42;101622.41;;;17.46;100.00
17855;BME280;9053;53.358;6.382;2023-10-09T06:34:44;101632.19;;;17.48;100.00
17855;BME280;9053;53.358;6.382;2023-10-09T06:37:12;101634.84;;;17.47;100.00
17855;BME280;9053;53.358;6.382;2023-10-09T06:40:01;101625.13;;;17.49;100.00
17855;BME280;9053;53.358;6.382;2023-10-09T06:43:13;101625.97;;;17.48;100.00
17855;BME280;9053;53.358;6.382;2023-10-09T06:45:57;101620.66;;;17.48;100.00
17855;BME280;9053;53.358;6.382;2023-10-09T06:48:47;101620.66;;;17.48;100.00
17855;BME280;9053;53.358;6.382;2023-10-09T06:51:25;101624.25;;;17.50;100.00
17855;BME280;9053;53.358;6.382;2023-10-09T06:54:11;101623.38;;;17.49;100.00
17855;BME280;9053;53.358;6.382;2023-10-09T06:56:43;101612.72;;;17.51;100.00
17855;BME280;9053;53.358;6.382;2023-10-09T06:59:33;101610.06;;;17.51;100.00
17855;BME280;9053;53.358;6.382;2023-10-09T07:02:38;101616.31;;;17.53;100.00
17855;BME280;9053;53.358;6.382;2023-10-09T07:05:13;101618.09;;;17.52;100.00
17855;BME280;9053;53.358;6.382;2023-10-09T07:07:44;101623.44;;;17.54;100.00
17855;BME280;9053;53.358;6.382;2023-10-09T07:10:39;101623.47;;;17.56;100.00
17855;BME280;9053;53.358;6.382;2023-10-09T07:13:32;101625.31;;;17.60;100.00
17855;BME280;9053;53.358;6.382;2023-10-09T07:16:06;101621.78;;;17.61;100.00
17855;BME280;9053;53.358;6.382;2023-10-09T07:19:01;101624.47;;;17.62;100.00
17855;BME280;9053;53.358;6.382;2023-10-09T07:21:39;101622.66;;;17.61;100.00
17855;BME280;9053;53.358;6.382;2023-10-09T07:24:18;101633.34;;;17.63;100.00
17855;BME280;9053;53.358;6.382;2023-10-09T07:27:06;101636.88;;;17.63;100.00
17855;BME280;9053;53.358;6.382;2023-10-09T07:29:44;101646.69;;;17.64;100.00
17855;BME280;9053;53.358;6.382;2023-10-09T07:32:22;101648.47;;;17.65;100.00
17855;BME280;9053;53.358;6.382;2023-10-09T07:34:54;101649.38;;;17.67;100.00
17855;BME280;9053;53.358;6.382;2023-10-09T07:37:31;101658.22;;;17.66;100.00
17855;BME280;9053;53.358;6.382;2023-10-09T07:40:02;101659.13;;;17.67;100.00
17855;BME280;9053;53.358;6.382;2023-10-09T07:42:36;101661.75;;;17.65;100.00
17855;BME280;9053;53.358;6.382;2023-10-09T07:45:21;101649.34;;;17.64;100.00
17855;BME280;9053;53.358;6.382;2023-10-09T07:48:12;101639.53;;;17.62;100.00
17855;BME280;9053;53.358;6.382;2023-10-09T07:50:44;101655.47;;;17.60;100.00
17855;BME280;9053;53.358;6.382;2023-10-09T07:53:34;101659.00;;;17.59;100.00
17855;BME280;9053;53.358;6.382;2023-10-09T07:56:10;101671.47;;;17.62;100.00
17855;BME280;9053;53.358;6.382;2023-10-09T07:58:49;101677.66;;;17.62;100.00
17855;BME280;9053;53.358;6.382;2023-10-09T08:01:19;101675.00;;;17.62;100.00
17855;BME280;9053;53.358;6.382;2023-10-09T08:04:07;101668.81;;;17.63;100.00
17855;BME280;9053;53.358;6.382;2023-10-09T08:06:39;101677.66;;;17.62;100.00
17855;BME280;9053;53.358;6.382;2023-10-09T08:09:06;101679.44;;;17.63;100.00
17855;BME280;9053;53.358;6.382;2023-10-09T08:12:13;101687.47;;;17.66;100.00
17855;BME280;9053;53.358;6.382;2023-10-09T08:14:59;101681.28;;;17.66;100.00
17855;BME280;9053;53.358;6.382;2023-10-09T08:17:51;101678.66;;;17.67;100.00
17855;BME280;9053;53.358;6.382;2023-10-09T08:20:33;101673.38;;;17.69;100.00
17855;BME280;9053;53.358;6.382;2023-10-09T08:23:26;101653.91;;;17.71;100.00
17855;BME280;9053;53.358;6.382;2023-10-09T08:25:59;101656.56;;;17.73;100.00
17855;BME280;9053;53.358;6.382;2023-10-09T08:28:40;101664.59;;;17.74;100.00
17855;BME280;9053;53.358;6.382;2023-10-09T08:31:13;101661.03;;;17.76;100.00
17855;BME280;9053;53.358;6.382;2023-10-09T08:34:01;101672.63;;;17.78;100.00
17855;BME280;9053;53.358;6.382;2023-10-09T08:36:36;101685.03;;;17.79;100.00
17855;BME280;9053;53.358;6.382;2023-10-09T08:39:10;101684.22;;;17.81;100.00
17855;BME280;9053;53.358;6.382;2023-10-09T08:41:52;101678.94;;;17.83;100.00
17855;BME280;9053;53.358;6.382;2023-10-09T08:44:25;101683.38;;;17.84;100.00
17855;BME280;9053;53.358;6.382;2023-10-09T08:46:59;101679.00;;;17.84;100.00
17855;BME280;9053;53.358;6.382;2023-10-09T08:49:32;101679.84;;;17.83;100.00
17855;BME280;9053;53.358;6.382;2023-10-09T08:52:07;101675.41;;;17.84;100.00
17855;BME280;9053;53.358;6.382;2023-10-09T08:54:46;101676.38;;;17.87;100.00
17855;BME280;9053;53.358;6.382;2023-10-09T08:57:16;101674.63;;;17.89;100.00
17855;BME280;9053;53.358;6.382;2023-10-09T08:59:47;101680.84;;;17.91;100.00
17855;BME280;9053;53.358;6.382;2023-10-09T09:02:18;101681.81;;;17.95;100.00
17855;BME280;9053;53.358;6.382;2023-10-09T09:04:50;101685.41;;;17.97;100.00
17855;BME280;9053;53.358;6.382;2023-10-09T09:07:31;101683.66;;;17.99;100.00
17855;BME280;9053;53.358;6.382;2023-10-09T09:10:15;101686.38;;;18.02;100.00
17855;BME280;9053;53.358;6.382;2023-10-09T09:12:49;101692.63;;;18.04;100.00
17855;BME280;9053;53.358;6.382;2023-10-09T09:15:23;101683.75;;;18.05;100.00
17855;BME280;9053;53.358;6.382;2023-10-09T09:18:04;101688.19;;;18.05;100.00
17855;BME280;9053;53.358;6.382;2023-10-09T09:20:38;101688.22;;;18.06;100.00
17855;BME280;9053;53.358;6.382;2023-10-09T09:23:17;101693.56;;;18.08;100.00
17855;BME280;9053;53.358;6.382;2023-10-09T09:25:50;101681.16;;;18.08;100.00
17855;BME280;9053;53.358;6.382;2023-10-09T09:28:29;101696.28;;;18.09;100.00
17855;BME280;9053;53.358;6.382;2023-10-09T09:31:07;101689.19;;;18.11;100.00
17855;BME280;9053;53.358;6.382;2023-10-09T09:33:44;101697.19;;;18.13;100.00
17855;BME280;9053;53.358;6.382;2023-10-09T09:36:23;101704.31;;;18.14;100.00
17855;BME280;9053;53.358;6.382;2023-10-09T09:38:58;101706.16;;;18.18;100.00
17855;BME280;9053;53.358;6.382;2023-10-09T09:41:34;101712.41;;;18.20;100.00
17855;BME280;9053;53.358;6.382;2023-10-09T09:44:07;101709.78;;;18.23;100.00
17855;BME280;9053;53.358;6.382;2023-10-09T09:46:56;101716.94;;;18.26;100.00
17855;BME280;9053;53.358;6.382;2023-10-09T09:49:30;101724.97;;;18.29;100.00
17855;BME280;9053;53.358;6.382;2023-10-09T09:52:07;101726.78;;;18.30;100.00
17855;BME280;9053;53.358;6.382;2023-10-09T09:54:41;101727.66;;;18.32;100.00
17855;BME280;9053;53.358;6.382;2023-10-09T09:57:18;101737.50;;;18.34;100.00
17855;BME280;9053;53.358;6.382;2023-10-09T09:59:54;101732.19;;;18.36;100.00
17855;BME280;9053;53.358;6.382;2023-10-09T10:02:35;101736.66;;;18.38;100.00
17855;BME280;9053;53.358;6.382;2023-10-09T10:05:17;101730.44;;;18.38;100.00
17855;BME280;9053;53.358;6.382;2023-10-09T10:07:47;101734.84;;;18.34;100.00
17855;BME280;9053;53.358;6.382;2023-10-09T10:10:38;101732.13;;;18.33;100.00
17855;BME280;9053;53.358;6.382;2023-10-09T10:13:16;101723.25;;;18.32;100.00
17855;BME280;9053;53.358;6.382;2023-10-09T10:16:05;101731.16;;;18.28;100.00
17855;BME280;9053;53.358;6.382;2023-10-09T10:18:54;101726.69;;;18.27;100.00
17855;BME280;9053;53.358;6.382;2023-10-09T10:21:28;101727.59;;;18.26;100.00
17855;BME280;9053;53.358;6.382;2023-10-09T10:27:22;101741.78;;;18.25;100.00
17855;BME280;9053;53.358;6.382;2023-10-09T10:30:28;101751.50;;;18.24;100.00
17855;BME280;9053;53.358;6.382;2023-10-09T10:33:04;101751.50;;;18.23;100.00
17855;BME280;9053;53.358;6.382;2023-10-09T10:35:43;101749.69;;;18.20;100.00
17855;BME280;9053;53.358;6.382;2023-10-09T10:38:25;101754.03;;;18.16;100.00
17855;BME280;9053;53.358;6.382;2023-10-09T10:41:18;101758.47;;;18.14;100.00
17855;BME280;9053;53.358;6.382;2023-10-09T10:43:57;101769.16;;;18.17;100.00
17855;BME280;9053;53.358;6.382;2023-10-09T10:46:49;101768.22;;;18.15;100.00
17855;BME280;9053;53.358;6.382;2023-10-09T10:49:25;101772.66;;;18.15;100.00
17855;BME280;9053;53.358;6.382;2023-10-09T10:52:04;101781.53;;;18.15;100.00
17855;BME280;9053;53.358;6.382;2023-10-09T10:54:46;101779.78;;;18.14;100.00
17855;BME280;9053;53.358;6.382;2023-10-09T10:57:35;101774.44;;;18.14;100.00
17855;BME280;9053;53.358;6.382;2023-10-09T11:00:22;101783.28;;;18.12;100.00
17855;BME280;9053;53.358;6.382;2023-10-09T11:03:07;101787.63;;;18.07;100.00
17855;BME280;9053;53.358;6.382;2023-10-09T11:05:45;101774.31;;;18.08;100.00
17855;BME280;9053;53.358;6.382;2023-10-09T11:08:27;101783.19;;;18.07;100.00
17855;BME280;9053;53.358;6.382;2023-10-09T11:11:14;101774.31;;;18.08;100.00
17855;BME280;9053;53.358;6.382;2023-10-09T11:13:50;101774.38;;;18.11;100.00
17855;BME280;9053;53.358;6.382;2023-10-09T11:16:24;101777.94;;;18.13;100.00
17855;BME280;9053;53.358;6.382;2023-10-09T11:19:13;101769.16;;;18.17;100.00
17855;BME280;9053;53.358;6.382;2023-10-09T11:21:56;101771.84;;;18.19;100.00
17855;BME280;9053;53.358;6.382;2023-10-09T11:24:46;101771.88;;;18.21;100.00
17855;BME280;9053;53.358;6.382;2023-10-09T11:27:27;101765.66;;;18.22;100.00
17855;BME280;9053;53.358;6.382;2023-10-09T11:30:01;101773.72;;;18.25;100.00
17855;BME280;9053;53.358;6.382;2023-10-09T11:32:43;101771.19;;;18.34;100.00
17855;BME280;9053;53.358;6.382;2023-10-09T11:35:17;101774.81;;;18.37;100.00
17855;BME280;9053;53.358;6.382;2023-10-09T11:37:56;101773.97;;;18.40;100.00
17855;BME280;9053;53.358;6.382;2023-10-09T11:40:35;101785.50;;;18.39;100.00
17855;BME280;9053;53.358;6.382;2023-10-09T11:43:46;101785.50;;;18.39;100.00
17855;BME280;9053;53.358;6.382;2023-10-09T11:46:22;101779.31;;;18.40;100.00
17855;BME280;9053;53.358;6.382;2023-10-09T11:49:10;101773.97;;;18.40;100.00
17855;BME280;9053;53.358;6.382;2023-10-09T11:52:05;101772.22;;;18.41;100.00
17855;BME280;9053;53.358;6.382;2023-10-09T11:54:48;101767.81;;;18.43;100.00
17855;BME280;9053;53.358;6.382;2023-10-09T11:57:24;101769.59;;;18.44;100.00
17855;BME280;9053;53.358;6.382;2023-10-09T12:00:03;101769.63;;;18.47;100.00
17855;BME280;9053;53.358;6.382;2023-10-09T12:02:49;101761.63;;;18.45;100.00
17855;BME280;9053;53.358;6.382;2023-10-09T12:05:27;101774.91;;;18.44;100.00
17855;BME280;9053;53.358;6.382;2023-10-09T12:07:57;101767.78;;;18.41;100.00
17855;BME280;9053;53.358;6.382;2023-10-09T12:10:31;101766.84;;;18.37;100.00
17855;BME280;9053;53.358;6.382;2023-10-09T12:13:18;101756.16;;;18.34;100.00
17855;BME280;9053;53.358;6.382;2023-10-09T12:15:52;101752.63;;;18.38;100.00
17855;BME280;9053;53.358;6.382;2023-10-09T12:18:22;101756.28;;;18.42;100.00
17855;BME280;9053;53.358;6.382;2023-10-09T12:20:58;101753.66;;;18.45;100.00
17855;BME280;9053;53.358;6.382;2023-10-09T12:23:31;101753.72;;;18.51;100.00
17855;BME280;9053;53.358;6.382;2023-10-09T12:26:03;101756.44;;;18.53;100.00
17855;BME280;9053;53.358;6.382;2023-10-09T12:28:42;101747.56;;;18.52;100.00
17855;BME280;9053;53.358;6.382;2023-10-09T12:31:19;101755.53;;;18.52;100.00
17855;BME280;9053;53.358;6.382;2023-10-09T12:34:00;101757.28;;;18.52;100.00
17855;BME280;9053;53.358;6.382;2023-10-09T12:36:35;101759.00;;;18.48;100.00
17855;BME280;9053;53.358;6.382;2023-10-09T12:39:08;101755.47;;;18.49;100.00
17855;BME280;9053;53.358;6.382;2023-10-09T12:41:44;101759.00;;;18.48;100.00
17855;BME280;9053;53.358;6.382;2023-10-09T12:44:21;101755.41;;;18.46;100.00
17855;BME280;9053;53.358;6.382;2023-10-09T12:46:55;101767.91;;;18.49;100.00
17855;BME280;9053;53.358;6.382;2023-10-09T12:49:32;101760.88;;;18.52;100.00
17855;BME280;9053;53.358;6.382;2023-10-09T12:52:11;101762.69;;;18.56;100.00
17855;BME280;9053;53.358;6.382;2023-10-09T12:54:46;101766.28;;;18.58;100.00
17855;BME280;9053;53.358;6.382;2023-10-09T12:57:18;101757.41;;;18.59;100.00
17855;BME280;9053;53.358;6.382;2023-10-09T12:59:50;101765.38;;;18.59;100.00
17855;BME280;9053;53.358;6.382;2023-10-09T13:02:22;101756.50;;;18.59;100.00
17855;BME280;9053;53.358;6.382;2023-10-09T13:05:12;101750.34;;;18.62;100.00
17855;BME280;9053;53.358;6.382;2023-10-09T13:07:55;101758.31;;;18.62;100.00
17855;BME280;9053;53.358;6.382;2023-10-09T13:10:31;101763.56;;;18.57;100.00
17855;BME280;9053;53.358;6.382;2023-10-09T13:13:05;101759.09;;;18.54;100.00
17855;BME280;9053;53.358;6.382;2023-10-09T13:15:38;101765.34;;;18.55;100.00
17855;BME280;9053;53.358;6.382;2023-10-09T13:18:09;101770.66;;;18.55;100.00
17855;BME280;9053;53.358;6.382;2023-10-09T13:20:41;101776.88;;;18.55;100.00
17855;BME280;9053;53.358;6.382;2023-10-09T13:23:15;101771.53;;;18.52;100.00
17855;BME280;9053;53.358;6.382;2023-10-09T13:25:46;101787.44;;;18.48;100.00
17855;BME280;9053;53.358;6.382;2023-10-09T13:28:20;101775.81;;;18.43;100.00
17855;BME280;9053;53.358;6.382;2023-10-09T13:30:56;101785.50;;;18.39;100.00
17855;BME280;9053;53.358;6.382;2023-10-09T13:33:31;101784.63;;;18.40;100.00
17855;BME280;9053;53.358;6.382;2023-10-09T13:36:04;101787.25;;;18.38;100.00
17855;BME280;9053;53.358;6.382;2023-10-09T13:38:46;101781.94;;;18.37;100.00
17855;BME280;9053;53.358;6.382;2023-10-09T13:41:22;101781.94;;;18.37;100.00
17855;BME280;9053;53.358;6.382;2023-10-09T13:43:57;101780.16;;;18.37;100.00
17855;BME280;9053;53.358;6.382;2023-10-09T13:46:33;101789.88;;;18.35;100.00
17855;BME280;9053;53.358;6.382;2023-10-09T13:49:09;101784.50;;;18.34;100.00
17855;BME280;9053;53.358;6.382;2023-10-09T13:51:54;101782.72;;;18.33;100.00
17855;BME280;9053;53.358;6.382;2023-10-09T13:54:26;101786.28;;;18.33;100.00
17855;BME280;9053;53.358;6.382;2023-10-09T13:57:07;101796.06;;;18.33;100.00
17855;BME280;9053;53.358;6.382;2023-10-09T13:59:51;101788.94;;;18.33;100.00